Time;durP1;ratioP1;P1;durP2;ratioP2;P2;SDS_P1;SDS_P2;PMS_P1;PMS_P2;Temp;Humidity;BMP_temperature;BMP_pressure;BME280_temperature;BME280_humidity;BME280_pressure;Samples;Min_cycle;Max_cycle;Signal;HPM_P1;HPM_P2
2022/04/19 00:01:44;;;;;;;12.95;8.52;;;9.90;66.00;;;;;;5010380;28;20045;-44
2022/04/19 00:04:11;;;;;;;17.13;9.13;;;9.90;66.20;;;;;;5008515;28;20561;-43
2022/04/19 00:06:38;;;;;;;18.08;10.13;;;9.80;66.40;;;;;;5010463;28;20401;-43
2022/04/19 00:09:05;;;;;;;14.93;8.68;;;9.80;66.80;;;;;;5009622;28;20082;-44
2022/04/19 00:11:33;;;;;;;14.40;9.55;;;9.70;67.00;;;;;;5009636;28;20436;-43
2022/04/19 00:14:00;;;;;;;14.88;10.35;;;9.70;67.40;;;;;;5010957;28;20052;-44
2022/04/19 00:16:26;;;;;;;18.23;9.93;;;9.60;68.20;;;;;;5009681;28;20065;-44
2022/04/19 00:18:53;;;;;;;14.43;9.35;;;9.60;69.10;;;;;;5010368;28;20045;-44
2022/04/19 00:21:20;;;;;;;15.20;9.15;;;9.50;69.10;;;;;;5007072;28;20041;-44
2022/04/19 00:23:47;;;;;;;14.88;9.38;;;9.40;69.20;;;;;;5008681;28;20059;-44
2022/04/19 00:26:14;;;;;;;17.80;9.27;;;9.40;69.50;;;;;;5008211;28;20053;-43
2022/04/19 00:28:42;;;;;;;14.13;7.93;;;9.40;69.90;;;;;;5010940;28;20060;-43
2022/04/19 00:31:09;;;;;;;14.68;8.00;;;9.30;69.90;;;;;;5007153;28;20782;-45
2022/04/19 00:33:38;;;;;;;13.13;8.77;;;9.30;69.90;;;;;;5007008;28;20078;-43
2022/04/19 00:36:07;;;;;;;18.25;11.15;;;9.30;70.50;;;;;;5008594;28;20054;-43
2022/04/19 00:38:34;;;;;;;17.98;10.55;;;9.20;72.40;;;;;;5009121;28;20060;-43
2022/04/19 00:41:01;;;;;;;19.75;9.65;;;9.10;74.10;;;;;;5008072;28;20042;-43
2022/04/19 00:43:28;;;;;;;13.95;9.45;;;9.10;74.60;;;;;;5009766;28;20064;-42
2022/04/19 00:45:56;;;;;;;13.02;8.98;;;9.00;75.10;;;;;;5011160;28;20541;-43
2022/04/19 00:48:23;;;;;;;16.85;8.30;;;9.00;76.10;;;;;;5008853;28;20060;-44
2022/04/19 00:50:50;;;;;;;12.40;8.15;;;8.80;76.10;;;;;;5008487;28;20056;-43
2022/04/19 00:53:17;;;;;;;12.50;8.43;;;8.80;75.90;;;;;;5005546;28;20049;-43
2022/04/19 00:55:44;;;;;;;11.38;7.88;;;8.80;75.70;;;;;;5010294;28;20133;-43
2022/04/19 00:58:12;;;;;;;13.70;8.68;;;8.80;75.70;;;;;;5012174;28;20068;-43
2022/04/19 01:00:39;;;;;;;13.07;8.10;;;8.70;76.10;;;;;;5009918;28;20056;-44
2022/04/19 01:03:07;;;;;;;12.15;7.85;;;8.70;76.40;;;;;;5008502;28;20054;-43
2022/04/19 01:05:34;;;;;;;13.88;8.65;;;8.70;76.30;;;;;;5009016;28;20512;-42
2022/04/19 01:08:01;;;;;;;15.85;8.60;;;8.70;76.50;;;;;;5009009;28;20094;-43
2022/04/19 01:10:27;;;;;;;16.23;8.23;;;8.60;76.70;;;;;;5005301;28;20049;-43
2022/04/19 01:15:41;;;;;;;11.77;7.95;;;8.60;76.80;;;;;;5009350;28;20049;-43
2022/04/19 01:18:09;;;;;;;17.67;8.20;;;8.60;76.90;;;;;;5009761;28;20054;-44
2022/04/19 01:20:38;;;;;;;13.10;7.60;;;8.50;77.30;;;;;;5016170;28;20498;-44
2022/04/19 01:23:07;;;;;;;14.80;8.57;;;8.50;77.60;;;;;;5012881;28;20490;-43
2022/04/19 01:25:34;;;;;;;13.52;8.32;;;8.50;77.80;;;;;;5007744;28;20194;-44
2022/04/19 01:28:00;;;;;;;13.20;7.60;;;8.40;78.30;;;;;;5005236;28;20050;-43
2022/04/19 01:30:27;;;;;;;14.95;9.40;;;8.40;78.00;;;;;;5006501;28;20509;-43
2022/04/19 01:32:54;;;;;;;15.07;9.50;;;8.40;78.40;;;;;;5009168;28;20049;-44
2022/04/19 01:35:21;;;;;;;15.40;9.65;;;8.30;78.80;;;;;;5008087;28;20053;-44
2022/04/19 01:37:49;;;;;;;13.38;7.75;;;8.30;79.20;;;;;;5007201;28;20049;-43
2022/04/19 01:40:17;;;;;;;12.75;8.48;;;8.30;78.90;;;;;;5008863;28;20050;-43
2022/04/19 01:42:45;;;;;;;15.45;9.10;;;8.20;78.80;;;;;;5007559;28;20049;-43
2022/04/19 01:45:12;;;;;;;15.40;9.20;;;8.20;78.80;;;;;;5008278;28;20063;-43
2022/04/19 01:47:39;;;;;;;14.05;8.85;;;8.20;79.10;;;;;;5008370;28;20060;-43
2022/04/19 01:50:09;;;;;;;15.80;9.25;;;8.10;78.90;;;;;;5008400;28;20046;-44
2022/04/19 01:52:36;;;;;;;13.57;9.07;;;8.10;79.10;;;;;;5007300;28;20133;-43
2022/04/19 01:55:03;;;;;;;19.17;9.52;;;8.10;79.10;;;;;;5006988;28;20050;-44
2022/04/19 01:57:31;;;;;;;12.55;8.10;;;8.00;79.40;;;;;;5005917;28;20070;-43
2022/04/19 01:59:58;;;;;;;11.20;8.05;;;8.00;79.50;;;;;;5007628;28;20338;-43
2022/04/19 02:02:24;;;;;;;15.27;9.70;;;8.00;79.40;;;;;;5007841;28;20050;-43
2022/04/19 02:04:51;;;;;;;13.30;9.13;;;8.00;79.50;;;;;;5006784;28;20048;-43
2022/04/19 02:07:18;;;;;;;14.45;9.23;;;7.90;79.50;;;;;;5006649;28;20141;-44
2022/04/19 02:09:44;;;;;;;13.10;9.15;;;7.90;79.70;;;;;;5008338;28;20049;-43
2022/04/19 02:12:11;;;;;;;11.02;7.88;;;7.90;80.10;;;;;;5006244;28;20508;-43
2022/04/19 02:14:41;;;;;;;13.75;8.80;;;7.80;80.40;;;;;;5008779;28;20052;-44
2022/04/19 02:17:09;;;;;;;16.98;9.52;;;7.80;80.60;;;;;;5005238;28;20143;-43
2022/04/19 02:19:35;;;;;;;11.60;8.25;;;7.80;80.60;;;;;;5006919;28;20503;-44
2022/04/19 02:22:02;;;;;;;14.75;8.65;;;7.70;80.50;;;;;;5005338;28;20071;-43
2022/04/19 02:24:29;;;;;;;15.63;9.25;;;7.70;80.90;;;;;;5007827;28;20054;-44
2022/04/19 02:26:57;;;;;;;14.43;8.95;;;7.70;81.00;;;;;;5006973;28;20121;-43
2022/04/19 02:29:25;;;;;;;14.48;10.40;;;7.70;81.20;;;;;;5010103;28;20590;-44
2022/04/19 02:31:53;;;;;;;15.18;8.95;;;7.60;83.30;;;;;;5012174;28;20140;-44
2022/04/19 02:34:19;;;;;;;14.38;9.48;;;7.50;84.60;;;;;;5012003;28;20048;-44
2022/04/19 02:36:46;;;;;;;16.15;9.63;;;7.50;85.60;;;;;;5012035;28;20056;-44
2022/04/19 02:39:13;;;;;;;16.52;9.32;;;7.50;85.70;;;;;;5010424;28;20062;-44
2022/04/19 02:41:39;;;;;;;16.83;9.05;;;7.40;85.10;;;;;;5009224;28;20054;-44
2022/04/19 02:44:07;;;;;;;14.35;9.43;;;7.40;85.00;;;;;;5005823;28;20053;-44
2022/04/19 02:46:35;;;;;;;12.60;8.55;;;7.40;85.00;;;;;;5008655;28;20046;-44
2022/04/19 02:49:04;;;;;;;12.90;8.50;;;7.40;84.60;;;;;;5006805;28;20057;-44
2022/04/19 02:51:31;;;;;;;12.73;8.48;;;7.30;84.20;;;;;;5007317;28;20038;-44
2022/04/19 02:53:58;;;;;;;12.60;8.80;;;7.30;84.00;;;;;;5006915;28;20050;-44
2022/04/19 02:56:25;;;;;;;12.88;8.55;;;7.30;84.80;;;;;;5006554;28;20077;-44
2022/04/19 02:58:52;;;;;;;11.90;8.45;;;7.30;84.30;;;;;;5008246;28;20053;-44
2022/04/19 03:01:19;;;;;;;14.63;9.65;;;7.30;84.30;;;;;;5006855;28;20042;-45
2022/04/19 03:03:46;;;;;;;13.80;9.52;;;7.30;84.10;;;;;;5007714;28;20465;-44
2022/04/19 03:06:14;;;;;;;15.98;9.90;;;7.30;84.50;;;;;;5005673;28;20058;-44
2022/04/19 03:08:40;;;;;;;17.35;9.40;;;7.20;84.80;;;;;;5004695;28;20054;-44
2022/04/19 03:11:07;;;;;;;15.48;10.32;;;7.20;84.80;;;;;;5007209;28;20410;-44
2022/04/19 03:13:35;;;;;;;14.07;8.50;;;7.20;85.60;;;;;;5005751;28;20502;-44
2022/04/19 03:16:02;;;;;;;13.75;8.52;;;7.10;85.10;;;;;;5004358;28;20049;-44
2022/04/19 03:18:30;;;;;;;15.88;10.07;;;7.10;85.00;;;;;;5005320;28;20057;-44
2022/04/19 03:20:56;;;;;;;14.30;9.38;;;7.10;85.40;;;;;;5010844;28;20136;-43
2022/04/19 03:28:53;;;;;;;20.35;12.10;;;7.00;85.60;;;;;;5007290;28;20049;-43
2022/04/19 03:31:22;;;;;;;18.70;11.18;;;7.00;86.60;;;;;;5006534;28;20081;-44
2022/04/19 03:33:52;;;;;;;22.90;10.82;;;7.00;87.10;;;;;;5008389;28;20050;-44
2022/04/19 03:36:19;;;;;;;17.38;11.55;;;6.90;87.40;;;;;;5008779;28;20080;-44
2022/04/19 03:38:47;;;;;;;18.08;10.48;;;6.90;88.20;;;;;;5004978;28;20517;-45
2022/04/19 03:41:14;;;;;;;20.13;10.55;;;6.90;88.20;;;;;;5006580;28;20060;-44
2022/04/19 03:43:41;;;;;;;16.80;10.55;;;6.90;88.60;;;;;;5007772;28;20046;-44
2022/04/19 03:46:08;;;;;;;16.08;10.93;;;6.90;88.70;;;;;;5010021;28;20591;-44
2022/04/19 03:48:35;;;;;;;22.98;10.32;;;6.90;89.40;;;;;;5008733;28;20058;-44
2022/04/19 03:51:02;;;;;;;19.23;10.52;;;6.80;90.10;;;;;;5011029;28;20060;-44
2022/04/19 03:53:28;;;;;;;16.67;10.30;;;6.80;90.00;;;;;;5008641;28;20132;-44
2022/04/19 03:55:58;;;;;;;15.25;10.13;;;6.80;90.30;;;;;;5012628;28;20057;-44
2022/04/19 03:58:26;;;;;;;16.98;9.20;;;6.80;89.90;;;;;;5011364;28;20058;-44
2022/04/19 04:00:53;;;;;;;19.25;10.65;;;6.70;89.60;;;;;;5009669;28;20053;-44
2022/04/19 04:03:20;;;;;;;19.27;10.55;;;6.80;89.90;;;;;;5010564;28;20064;-44
2022/04/19 04:05:47;;;;;;;16.70;10.25;;;6.70;90.10;;;;;;5009832;28;20058;-43
2022/04/19 04:08:14;;;;;;;15.75;10.13;;;6.70;90.20;;;;;;5008638;28;20060;-44
2022/04/19 04:10:40;;;;;;;16.65;10.80;;;6.70;89.90;;;;;;5009842;28;20176;-43
2022/04/19 04:13:09;;;;;;;21.05;11.30;;;6.70;89.90;;;;;;5008212;28;20050;-44
2022/04/19 04:15:35;;;;;;;16.23;9.38;;;6.70;90.00;;;;;;5008106;28;20453;-43
2022/04/19 04:18:02;;;;;;;16.70;10.10;;;6.60;89.50;;;;;;5008084;28;20204;-44
2022/04/19 04:20:29;;;;;;;20.50;9.95;;;6.60;89.10;;;;;;5008218;28;20041;-43
2022/04/19 04:22:56;;;;;;;15.30;10.35;;;6.60;89.00;;;;;;5005631;28;20046;-43
2022/04/19 04:25:22;;;;;;;16.83;9.85;;;6.60;89.50;;;;;;5006356;28;20149;-43
2022/04/19 04:27:49;;;;;;;14.60;8.93;;;6.60;90.00;;;;;;5008476;28;20129;-44
2022/04/19 04:30:17;;;;;;;14.52;9.60;;;6.60;89.70;;;;;;5010506;28;20048;-43
2022/04/19 04:32:44;;;;;;;12.65;9.20;;;6.60;89.40;;;;;;5009629;28;20056;-44
2022/04/19 04:35:11;;;;;;;16.17;10.40;;;6.60;89.20;;;;;;5008403;28;20054;-44
2022/04/19 04:37:37;;;;;;;15.30;10.52;;;6.60;89.60;;;;;;5008130;28;20089;-43
2022/04/19 04:40:05;;;;;;;14.95;10.32;;;6.50;90.00;;;;;;5006512;28;20060;-42
2022/04/19 04:42:31;;;;;;;20.70;10.38;;;6.50;90.00;;;;;;5021499;28;20129;-44
2022/04/19 04:44:58;;;;;;;15.55;10.45;;;6.50;90.20;;;;;;5007261;28;20054;-43
2022/04/19 04:50:10;;;;;;;19.10;11.18;;;6.50;90.10;;;;;;5009313;28;20050;-43
2022/04/19 04:52:37;;;;;;;15.40;9.88;;;6.40;90.30;;;;;;5010373;28;20528;-43
2022/04/19 04:55:05;;;;;;;13.68;9.88;;;6.40;90.40;;;;;;5008821;28;20103;-43
2022/04/19 04:57:31;;;;;;;16.83;9.70;;;6.40;90.50;;;;;;5012080;28;20058;-43
2022/04/19 04:59:58;;;;;;;16.83;9.80;;;6.40;90.50;;;;;;5008685;28;20058;-43
2022/04/19 05:02:26;;;;;;;14.80;9.18;;;6.40;90.60;;;;;;5006869;28;20124;-43
2022/04/19 05:04:53;;;;;;;21.50;10.35;;;6.40;90.60;;;;;;5009187;28;20077;-44
2022/04/19 05:07:20;;;;;;;18.27;10.55;;;6.40;90.60;;;;;;5008652;28;20494;-44
2022/04/19 05:09:49;;;;;;;14.30;10.13;;;6.40;90.90;;;;;;5009296;28;20052;-43
2022/04/19 05:12:16;;;;;;;17.65;10.45;;;6.40;91.20;;;;;;5006556;28;20413;-44
2022/04/19 05:14:43;;;;;;;15.90;10.23;;;6.40;91.20;;;;;;5009102;28;20054;-44
2022/04/19 05:17:10;;;;;;;24.33;11.45;;;6.40;91.60;;;;;;5008513;28;20084;-43
2022/04/19 05:19:38;;;;;;;20.45;11.90;;;6.40;92.00;;;;;;5006699;28;20050;-45
2022/04/19 05:22:05;;;;;;;19.00;10.32;;;6.40;92.30;;;;;;5008406;28;20064;-45
2022/04/19 05:24:31;;;;;;;16.33;10.85;;;6.50;92.40;;;;;;5010416;28;20479;-43
2022/04/19 05:26:58;;;;;;;19.83;11.23;;;6.50;92.60;;;;;;5012784;28;20054;-44
2022/04/19 05:29:25;;;;;;;22.80;11.73;;;6.50;92.70;;;;;;5001287;28;20057;-43
2022/04/19 05:31:51;;;;;;;15.98;10.48;;;6.60;92.70;;;;;;5007257;28;20141;-44
2022/04/19 05:34:18;;;;;;;20.75;10.95;;;6.70;92.60;;;;;;5008433;28;20144;-44
2022/04/19 05:36:46;;;;;;;17.35;11.55;;;6.70;92.60;;;;;;5006844;28;20048;-43
2022/04/19 05:39:13;;;;;;;14.63;10.30;;;6.70;93.00;;;;;;5007136;28;20053;-43
2022/04/19 05:41:40;;;;;;;17.83;11.88;;;6.80;93.00;;;;;;5008191;28;20577;-43
2022/04/19 05:44:07;;;;;;;18.67;11.98;;;6.80;93.30;;;;;;5008134;28;20050;-43
2022/04/19 05:46:35;;;;;;;16.73;11.40;;;6.90;93.60;;;;;;5009130;28;20133;-43
2022/04/19 05:49:04;;;;;;;16.80;10.95;;;7.00;93.50;;;;;;5006319;28;20568;-43
2022/04/19 05:51:31;;;;;;;17.33;11.57;;;7.00;93.60;;;;;;5007927;28;20081;-44
2022/04/19 05:53:59;;;;;;;27.48;11.70;;;7.20;93.80;;;;;;5003894;28;20506;-44
2022/04/19 05:56:25;;;;;;;21.92;10.80;;;7.20;93.80;;;;;;5006373;28;20050;-44
2022/04/19 05:58:52;;;;;;;19.80;11.32;;;7.30;93.90;;;;;;5003240;28;20450;-45
2022/04/19 06:01:19;;;;;;;18.70;10.88;;;7.50;94.00;;;;;;5013154;28;20552;-44
2022/04/19 06:06:30;;;;;;;23.83;11.60;;;7.70;93.90;;;;;;5004031;28;20432;-45
2022/04/19 06:08:57;;;;;;;17.50;11.35;;;7.80;94.00;;;;;;5008614;28;20418;-44
2022/04/19 06:11:25;;;;;;;17.77;11.05;;;8.00;93.90;;;;;;5005686;28;20064;-44
2022/04/19 06:13:51;;;;;;;17.95;10.82;;;8.10;94.10;;;;;;5007037;28;20053;-44
2022/04/19 06:16:18;;;;;;;17.05;10.55;;;8.30;94.00;;;;;;5002358;28;20595;-44
2022/04/19 06:18:45;;;;;;;15.70;10.30;;;8.40;94.20;;;;;;5001638;28;20050;-44
2022/04/19 06:21:11;;;;;;;15.30;10.25;;;8.60;94.10;;;;;;5002120;28;20045;-44
2022/04/19 06:23:38;;;;;;;19.33;10.98;;;8.70;94.00;;;;;;5009613;28;20389;-44
2022/04/19 06:26:05;;;;;;;16.63;10.23;;;8.90;94.00;;;;;;5008338;28;20049;-44
2022/04/19 06:28:33;;;;;;;15.45;10.50;;;8.90;93.90;;;;;;5005776;28;20059;-44
2022/04/19 06:30:59;;;;;;;15.20;9.65;;;9.10;93.80;;;;;;5009287;28;20512;-44
2022/04/19 06:33:26;;;;;;;14.55;9.95;;;9.30;93.80;;;;;;5011566;28;20402;-43
2022/04/19 06:35:53;;;;;;;16.98;9.25;;;9.40;93.80;;;;;;5009075;28;20050;-44
2022/04/19 06:38:19;;;;;;;10.98;8.45;;;9.50;93.80;;;;;;5003951;28;20054;-45
2022/04/19 06:40:46;;;;;;;15.57;10.32;;;9.60;93.70;;;;;;5008558;28;20104;-44
2022/04/19 06:43:13;;;;;;;14.48;9.30;;;9.80;93.60;;;;;;5009642;28;20064;-44
2022/04/19 06:45:43;;;;;;;13.98;8.90;;;9.90;93.50;;;;;;5010138;28;20057;-45
2022/04/19 06:48:10;;;;;;;14.27;8.80;;;10.10;93.50;;;;;;5010142;28;20058;-44
2022/04/19 06:50:36;;;;;;;15.60;8.90;;;10.20;93.20;;;;;;5011600;28;20058;-44
2022/04/19 06:53:03;;;;;;;13.68;9.00;;;10.40;93.10;;;;;;5010119;28;20053;-44
2022/04/19 06:55:31;;;;;;;13.40;8.52;;;10.60;92.80;;;;;;5010818;28;20136;-45
2022/04/19 06:57:57;;;;;;;11.35;8.45;;;10.70;92.60;;;;;;5007648;28;20050;-44
2022/04/19 07:00:24;;;;;;;15.40;8.88;;;10.90;92.40;;;;;;5024946;28;20486;-45
2022/04/19 07:02:52;;;;;;;17.05;8.68;;;11.00;92.10;;;;;;5001757;28;20108;-45
2022/04/19 07:05:19;;;;;;;15.10;8.13;;;11.20;91.90;;;;;;5003906;28;20058;-44
2022/04/19 07:07:46;;;;;;;15.25;8.82;;;11.40;91.80;;;;;;5007087;28;20052;-44
2022/04/19 07:10:13;;;;;;;12.32;8.15;;;11.50;91.50;;;;;;5007792;28;20376;-45
2022/04/19 07:12:40;;;;;;;11.32;8.23;;;11.70;91.30;;;;;;5009958;28;20054;-44
2022/04/19 07:15:08;;;;;;;14.38;8.27;;;11.90;91.00;;;;;;5009447;28;20877;-44
2022/04/19 07:17:38;;;;;;;12.30;7.68;;;12.10;90.70;;;;;;5010291;28;20057;-44
2022/04/19 07:28:20;;;;;;;15.45;7.63;;;12.70;88.90;;;;;;5002269;28;20062;-44
2022/04/19 07:30:47;;;;;;;12.52;7.28;;;12.90;87.90;;;;;;5009114;28;20052;-45
2022/04/19 07:33:16;;;;;;;13.23;7.25;;;13.00;86.90;;;;;;5010595;28;20048;-45
2022/04/19 07:35:44;;;;;;;16.45;7.93;;;13.20;86.70;;;;;;5001647;28;20054;-44
2022/04/19 07:38:11;;;;;;;17.60;7.60;;;13.30;85.90;;;;;;5007252;28;20064;-46
2022/04/19 07:40:38;;;;;;;12.38;8.02;;;13.50;85.90;;;;;;5007774;28;20417;-45
2022/04/19 07:43:06;;;;;;;14.38;8.05;;;13.60;84.70;;;;;;5009389;28;20042;-45
2022/04/19 07:45:32;;;;;;;12.55;7.35;;;13.80;84.20;;;;;;5023723;28;20710;-44
2022/04/19 07:47:59;;;;;;;11.70;7.10;;;13.90;83.50;;;;;;5010207;28;20049;-44
2022/04/19 07:50:26;;;;;;;13.23;7.28;;;14.00;82.10;;;;;;5005461;28;20042;-44
2022/04/19 07:52:54;;;;;;;12.30;6.80;;;14.10;81.30;;;;;;5008874;28;20097;-44
2022/04/19 07:55:21;;;;;;;11.55;6.13;;;14.20;80.90;;;;;;5007861;28;20046;-45
2022/04/19 07:57:47;;;;;;;9.30;5.63;;;14.30;80.30;;;;;;5004283;28;20058;-44
2022/04/19 08:00:17;;;;;;;10.13;6.40;;;14.50;79.20;;;;;;5008818;28;20125;-44
2022/04/19 08:02:43;;;;;;;9.70;6.40;;;14.60;78.20;;;;;;5007288;28;20065;-44
2022/04/19 08:05:10;;;;;;;13.07;6.18;;;14.80;78.40;;;;;;5008003;28;20104;-44
2022/04/19 08:07:37;;;;;;;8.65;5.28;;;15.00;77.40;;;;;;5008746;28;20476;-46
2022/04/19 08:10:06;;;;;;;9.70;6.25;;;15.10;76.40;;;;;;5004426;28;20134;-44
2022/04/19 08:12:33;;;;;;;10.95;6.05;;;15.20;75.70;;;;;;5001770;28;20058;-44
2022/04/19 08:15:00;;;;;;;12.82;6.57;;;15.40;76.10;;;;;;5003757;28;20060;-43
2022/04/19 08:17:26;;;;;;;9.85;5.55;;;15.50;74.80;;;;;;5002383;28;20070;-43
2022/04/19 08:19:56;;;;;;;9.43;5.82;;;15.70;73.90;;;;;;5006570;28;20052;-44
2022/04/19 08:22:23;;;;;;;11.52;6.78;;;15.80;72.40;;;;;;5003229;28;20041;-44
2022/04/19 08:24:49;;;;;;;9.18;6.45;;;15.90;73.10;;;;;;5009502;28;20066;-44
2022/04/19 08:27:17;;;;;;;9.15;6.55;;;16.00;72.20;;;;;;5008638;28;20050;-44
2022/04/19 08:29:49;;;;;;;9.30;6.20;;;16.10;71.20;;;;;;5011798;28;20414;-47
2022/04/19 08:32:16;;;;;;;11.30;6.15;;;16.20;71.20;;;;;;5007551;28;20049;-43
2022/04/19 08:34:43;;;;;;;9.10;6.30;;;16.30;70.10;;;;;;5005901;28;20068;-44
2022/04/19 08:37:10;;;;;;;11.63;6.50;;;16.50;69.30;;;;;;5008632;28;20058;-44
2022/04/19 08:39:37;;;;;;;9.38;5.47;;;16.60;69.40;;;;;;5011376;28;21594;-43
2022/04/19 08:42:04;;;;;;;9.32;5.97;;;16.80;69.10;;;;;;5010688;28;20530;-44
2022/04/19 08:44:34;;;;;;;11.02;5.82;;;16.80;67.60;;;;;;5013257;28;20050;-43
2022/04/19 08:47:00;;;;;;;10.68;6.38;;;16.90;67.00;;;;;;5000625;28;20087;-44
2022/04/19 08:49:27;;;;;;;11.52;6.55;;;16.90;66.20;;;;;;5012287;28;20406;-44
2022/04/19 08:51:54;;;;;;;10.23;6.43;;;16.90;66.40;;;;;;5009503;28;20056;-44
2022/04/19 08:59:53;;;;;;;6.70;4.25;;;17.10;62.90;;;;;;5004292;28;20463;-44
2022/04/19 09:02:21;;;;;;;7.60;4.63;;;17.10;63.30;;;;;;5009743;28;20513;-44
2022/04/19 09:04:48;;;;;;;10.80;5.68;;;17.10;62.60;;;;;;5010571;28;20049;-44
2022/04/19 09:07:15;;;;;;;17.25;5.40;;;17.20;62.60;;;;;;5026844;28;20042;-44
2022/04/19 09:09:42;;;;;;;10.88;5.55;;;17.30;62.60;;;;;;5009928;28;20064;-43
2022/04/19 09:12:10;;;;;;;8.98;5.72;;;17.40;62.80;;;;;;5010184;28;20054;-44
2022/04/19 09:14:36;;;;;;;9.60;6.03;;;17.50;61.70;;;;;;5013157;28;20540;-44
2022/04/19 09:17:05;;;;;;;11.88;5.32;;;17.60;62.20;;;;;;5013095;28;20113;-46
2022/04/19 09:19:32;;;;;;;11.30;5.13;;;17.70;62.60;;;;;;5012370;28;20056;-45
2022/04/19 09:21:59;;;;;;;9.02;4.32;;;17.80;61.00;;;;;;5004263;28;20409;-44
2022/04/19 09:24:26;;;;;;;6.03;4.30;;;17.70;60.50;;;;;;5011550;28;20045;-44
2022/04/19 09:26:53;;;;;;;5.80;3.60;;;17.60;60.50;;;;;;5011419;28;20042;-44
2022/04/19 09:29:21;;;;;;;7.47;3.92;;;17.70;59.90;;;;;;5007401;28;20057;-44
2022/04/19 09:31:49;;;;;;;6.70;3.50;;;17.90;59.60;;;;;;5009693;28;20052;-44
2022/04/19 09:34:29;;;;;;;6.88;3.78;;;18.00;58.30;;;;;;5010169;28;20406;-44
2022/04/19 09:37:06;;;;;;;7.65;3.95;;;18.20;55.80;;;;;;5009694;28;20074;-44
2022/04/19 09:39:34;;;;;;;6.47;3.83;;;18.20;56.50;;;;;;5007355;28;20089;-44
2022/04/19 09:42:01;;;;;;;5.43;3.35;;;18.20;55.70;;;;;;5002466;28;20058;-44
2022/04/19 09:44:29;;;;;;;4.90;3.25;;;18.10;54.20;;;;;;5004805;28;20111;-44
2022/04/19 09:47:04;;;;;;;5.45;3.35;;;18.20;53.80;;;;;;5011142;28;20064;-44
2022/04/19 09:49:48;;;;;;;6.65;2.60;;;18.20;51.60;;;;;;5003037;28;20058;-44
2022/04/19 09:52:32;;;;;;;5.32;2.70;;;18.20;51.90;;;;;;5013293;28;20049;-44
2022/04/19 09:55:00;;;;;;;4.22;2.65;;;18.30;51.60;;;;;;5007565;28;20478;-44
2022/04/19 09:57:27;;;;;;;5.57;2.60;;;18.40;51.20;;;;;;5011883;28;20054;-44
2022/04/19 09:59:53;;;;;;;3.78;2.40;;;18.40;49.10;;;;;;5010847;28;20057;-44
2022/04/19 10:10:35;;;;;;;4.82;1.73;;;18.60;47.20;;;;;;5008925;28;20058;-45
2022/04/19 10:13:03;;;;;;;3.92;1.77;;;18.70;47.10;;;;;;5009443;28;20041;-45
2022/04/19 10:15:30;;;;;;;5.68;2.28;;;18.80;45.70;;;;;;5009036;28;20148;-44
2022/04/19 10:17:57;;;;;;;7.18;2.17;;;18.90;46.00;;;;;;5011711;28;20056;-45
2022/04/19 10:20:31;;;;;;;12.57;2.50;;;19.00;46.20;;;;;;5007242;28;20045;-44
2022/04/19 10:23:01;;;;;;;6.30;2.70;;;19.10;46.20;;;;;;5010330;28;20129;-45
2022/04/19 10:25:40;;;;;;;3.42;2.10;;;19.20;45.80;;;;;;5004967;28;20050;-44
2022/04/19 10:28:08;;;;;;;3.42;2.42;;;19.20;46.90;;;;;;5017306;28;20045;-45
2022/04/19 10:30:36;;;;;;;2.95;2.00;;;19.40;46.30;;;;;;5005681;28;20395;-44
2022/04/19 10:33:04;;;;;;;5.53;2.53;;;19.50;45.80;;;;;;5008500;28;20045;-44
2022/04/19 10:35:33;;;;;;;6.05;2.53;;;19.60;45.80;;;;;;5010162;28;20049;-45
2022/04/19 10:38:20;;;;;;;5.55;2.58;;;19.70;45.80;;;;;;5004449;28;20046;-45
2022/04/19 10:40:50;;;;;;;6.03;2.17;;;19.70;43.50;;;;;;5010336;28;20058;-44
2022/04/19 10:43:17;;;;;;;3.65;1.70;;;19.60;44.40;;;;;;5002832;28;20494;-45
2022/04/19 10:45:46;;;;;;;3.35;1.70;;;19.60;44.20;;;;;;5013657;28;20120;-44
2022/04/19 10:48:14;;;;;;;4.32;2.22;;;19.60;44.10;;;;;;5009527;28;20490;-45
2022/04/19 10:50:45;;;;;;;3.13;2.25;;;19.60;44.80;;;;;;5010009;28;20058;-45
2022/04/19 10:53:12;;;;;;;5.25;2.17;;;19.70;44.40;;;;;;5011698;28;20060;-44
2022/04/19 10:55:39;;;;;;;6.35;2.28;;;19.70;44.90;;;;;;5010643;28;20058;-44
2022/04/19 10:58:16;;;;;;;5.68;2.03;;;19.80;44.10;;;;;;5009568;28;20049;-45
2022/04/19 11:00:51;;;;;;;2.60;2.00;;;19.90;45.00;;;;;;5011386;28;20086;-44
2022/04/19 11:03:18;;;;;;;3.25;2.15;;;19.90;45.00;;;;;;5008053;28;20050;-45
2022/04/19 11:05:47;;;;;;;9.43;2.10;;;20.00;44.10;;;;;;5011095;28;20041;-45
2022/04/19 11:08:44;;;;;;;5.45;2.33;;;20.10;44.20;;;;;;5008698;28;20056;-45
2022/04/19 11:11:24;;;;;;;4.72;2.55;;;20.10;43.80;;;;;;5001790;28;20042;-45
2022/04/19 11:14:16;;;;;;;6.75;2.00;;;20.10;44.50;;;;;;5005090;28;20058;-44
2022/04/19 11:16:43;;;;;;;5.10;2.33;;;20.10;44.30;;;;;;5008507;28;20376;-44
2022/04/19 11:19:15;;;;;;;3.00;1.77;;;20.30;44.70;;;;;;5011206;28;20049;-44
2022/04/19 11:21:52;;;;;;;4.10;1.80;;;20.50;44.50;;;;;;5011119;28;20057;-44
2022/04/19 11:24:56;;;;;;;3.55;2.15;;;20.60;43.70;;;;;;5004300;28;20506;-44
2022/04/19 11:27:23;;;;;;;5.85;2.40;;;20.80;43.60;;;;;;5007302;28;20494;-44
2022/04/19 11:29:50;;;;;;;7.30;1.98;;;20.90;44.20;;;;;;5011815;28;20123;-46
2022/04/19 11:32:21;;;;;;;3.05;1.58;;;20.90;44.40;;;;;;5002193;28;20148;-44
2022/04/19 11:34:57;;;;;;;5.38;2.30;;;21.00;44.60;;;;;;5010523;28;20393;-46
2022/04/19 11:37:26;;;;;;;3.53;1.60;;;21.00;43.60;;;;;;5010381;28;20046;-44
2022/04/19 11:48:07;;;;;;;4.72;2.10;;;20.70;44.00;;;;;;5010157;28;20133;-45
2022/04/19 11:50:34;;;;;;;3.45;1.85;;;20.60;44.40;;;;;;5000916;28;20046;-44
2022/04/19 11:53:02;;;;;;;3.33;2.08;;;20.60;44.90;;;;;;5003956;28;20089;-44
2022/04/19 11:55:28;;;;;;;2.88;1.90;;;20.60;44.20;;;;;;5012225;28;20505;-45
2022/04/19 11:58:03;;;;;;;7.18;2.50;;;20.60;45.10;;;;;;5015126;28;20062;-45
2022/04/19 12:00:31;;;;;;;2.95;2.08;;;20.80;45.80;;;;;;5007144;28;20054;-45
2022/04/19 12:02:58;;;;;;;2.80;1.55;;;20.90;44.70;;;;;;5013659;28;20343;-45
2022/04/19 12:05:25;;;;;;;7.30;1.88;;;21.10;44.10;;;;;;5011893;28;20054;-45
2022/04/19 12:07:52;;;;;;;5.53;2.03;;;21.10;43.40;;;;;;5015093;28;20046;-45
2022/04/19 12:10:20;;;;;;;6.80;1.90;;;21.00;43.40;;;;;;5013892;28;20056;-44
2022/04/19 12:12:47;;;;;;;6.15;1.90;;;21.00;43.40;;;;;;5007205;28;20053;-44
2022/04/19 12:15:14;;;;;;;3.17;1.80;;;20.80;43.10;;;;;;5014822;28;20092;-44
2022/04/19 12:17:44;;;;;;;2.80;1.63;;;20.90;43.50;;;;;;5013727;28;20050;-45
2022/04/19 12:20:11;;;;;;;4.05;2.00;;;20.90;43.00;;;;;;5007272;28;20054;-45
2022/04/19 12:22:38;;;;;;;5.20;2.35;;;20.90;43.10;;;;;;5000818;28;20049;-43
2022/04/19 12:25:06;;;;;;;8.15;2.75;;;20.90;42.80;;;;;;5004539;28;20048;-44
2022/04/19 12:27:35;;;;;;;4.63;1.90;;;20.80;42.70;;;;;;5006073;28;20047;-44
2022/04/19 12:30:03;;;;;;;7.13;2.53;;;20.80;43.70;;;;;;5006466;28;20601;-44
2022/04/19 12:32:54;;;;;;;11.13;2.28;;;20.90;43.50;;;;;;5012105;28;20144;-44
2022/04/19 12:35:25;;;;;;;3.28;2.10;;;21.00;42.50;;;;;;5014682;28;20038;-44
2022/04/19 12:38:08;;;;;;;5.03;2.40;;;21.00;42.50;;;;;;5014386;28;20054;-44
2022/04/19 12:40:35;;;;;;;6.95;2.40;;;21.00;43.60;;;;;;5014220;28;20096;-44
2022/04/19 12:43:03;;;;;;;5.30;2.15;;;21.20;43.50;;;;;;5014831;28;20517;-44
2022/04/19 12:45:31;;;;;;;5.22;2.40;;;21.50;43.80;;;;;;5015161;28;20462;-44
2022/04/19 12:48:00;;;;;;;4.90;2.70;;;21.50;42.20;;;;;;5014102;28;20096;-44
2022/04/19 12:50:27;;;;;;;4.80;3.20;;;21.30;42.50;;;;;;5008057;28;20078;-44
2022/04/19 12:52:54;;;;;;;6.53;2.80;;;21.00;43.50;;;;;;5014648;28;20061;-44
2022/04/19 12:55:28;;;;;;;7.03;3.10;;;20.90;43.20;;;;;;5013880;28;20429;-45
2022/04/19 12:58:08;;;;;;;6.60;3.00;;;20.90;43.20;;;;;;5011389;28;20105;-45
2022/04/19 13:00:35;;;;;;;5.57;3.20;;;21.00;44.20;;;;;;5015014;28;20053;-44
2022/04/19 13:03:02;;;;;;;4.50;2.50;;;21.10;43.10;;;;;;5008650;28;20045;-45
2022/04/19 13:12:16;;;;;;;3.45;2.50;;;21.10;43.10;;;;;;5014306;28;20048;-45
2022/04/19 13:13:45;;;;;;;5.60;2.40;;;21.10;42.20;;;;;;5014325;28;20050;-44
2022/04/19 13:16:12;;;;;;;5.40;2.33;;;20.90;42.60;;;;;;5012521;28;20050;-46
2022/04/19 13:18:40;;;;;;;5.72;2.55;;;21.00;43.10;;;;;;5007279;28;20056;-45
2022/04/19 13:21:07;;;;;;;4.78;2.30;;;21.00;42.20;;;;;;5005068;28;20050;-46
2022/04/19 13:23:33;;;;;;;4.97;2.35;;;21.00;42.00;;;;;;5015002;28;20050;-44
2022/04/19 13:26:00;;;;;;;4.28;2.10;;;20.90;43.10;;;;;;5012145;28;20479;-45
2022/04/19 13:28:27;;;;;;;3.58;2.10;;;21.00;43.20;;;;;;5023564;28;20388;-45
2022/04/19 13:30:55;;;;;;;4.05;2.45;;;21.20;42.60;;;;;;5004921;28;20483;-46
2022/04/19 13:33:22;;;;;;;4.38;2.20;;;21.30;42.20;;;;;;5019258;28;20514;-45
2022/04/19 13:35:49;;;;;;;6.70;2.75;;;21.30;42.70;;;;;;5009889;28;20068;-46
2022/04/19 13:38:24;;;;;;;5.72;2.30;;;21.30;42.50;;;;;;5011664;28;20054;-45